Terminal Aerodrome Forecast
Issued by NWS

Home | Current Version | Previous Version | Text Only | Print | Product List | Glossary Off
Versions: 1 2 3 4 5 6 7 8 9 10 11 12 13 14

000
FTUS43 KBIS 221122
TAFDIK
TAF
KDIK 221122Z 2212/2312 29007KT P6SM SKC
     FM221500 30012KT P6SM FEW110 FEW250
     FM222100 31020G29KT P6SM FEW110 FEW250
     FM230100 33013KT P6SM SKC
     FM230300 01009KT P6SM SKC
     FM230900 11005KT P6SM SKC=

USA.gov is the U.S. government's official web portal to all federal, state and local government web resources and services.